Boxholm, Iowa
Current Conditions -  °F | °C
As of 11:15 AM on Sunday 21 Dec 2014 (Local Time) from KBNW Reporting Station
Overcast Overcast  
Wind Chill: 30°   Ceiling: 1100
Heat Index: 39°   Visibility: 7mi
Dew Point: 37°   Wind: 16mph
Humidity: 93%   Direction: 190°S
Pressure: 29.87"   Gusts: 24mph
Location:  42.18°N, 94.11°W
Report Text: KBNW 211715Z AUTO 19014G21KT 7SM OVC011 04/03 A2987 RMK AO2
Loading
Personal Weather Stations






























Interactive Weather Map New forecast layout! Learn more

10-Day Weather Forecast

Advertisements
Track Severe Weather on mobile